UACC/TSE METAR and TAF weather

Enter ICAO airport designator
Station Type Date Time Source
UACC METAR 2021/10/24 22:00 UTC NOAA

UACC 242200Z 20003MPS CAVOK M00/M04 Q1020 R22/0///70 NOSIG RMK QFE734/0979


Station Type Date Time Source
UACC Decoded METAR 2021/10/24 22:00 UTC NOAA

Astana, Kazakhstan (UACC) 51-12N 071-27E
Oct 24, 2021 - 06:00 PM EDT / 2021.10.24 2200 UTC
Wind: from the SSW (200 degrees) at 7 MPH (6 KT):0
Visibility: greater than 7 mile(s):0
Temperature: 32 F (0 C)
Windchill: 24 F (-4 C):1
Dew Point: 24 F (-4 C)
Relative Humidity: 74%
Pressure (altimeter): 30.12 in. Hg (1020 hPa)
ob: UACC 242200Z 20003MPS CAVOK M00/M04 Q1020 R22/0///70 NOSIG RMK QFE734/0979
cycle: 22

Station Type Date Time Source
UACC TAF 2021/10/24 18:21 UTC NOAA

TAF UACC 241702Z 2418/2518 21006MPS 9999 SCT015 BKN040 TX13/2509Z TN01/2501Z

Example: see airport list